createdAt,value
2024-04-07T07:23:39.576Z,1.90
2024-04-07T07:26:14.527Z,1.00
2024-04-07T07:28:44.338Z,2.50
2024-04-07T07:31:12.865Z,2.10
2024-04-07T07:33:41.478Z,1.60
2024-04-07T07:36:10.573Z,1.50
2024-04-07T07:38:38.925Z,0.90
2024-04-07T07:41:08.116Z,1.20
2024-04-07T07:43:36.547Z,1.20
2024-04-07T07:46:04.905Z,1.00
2024-04-07T07:48:35.690Z,2.00
2024-04-07T07:51:12.452Z,1.60
2024-04-07T07:53:41.343Z,2.00
2024-04-07T07:56:10.367Z,1.20
2024-04-07T07:58:40.075Z,1.10
2024-04-07T08:01:08.565Z,0.80
2024-04-07T08:03:38.476Z,0.90
2024-04-07T08:06:07.654Z,1.00
2024-04-07T08:08:45.190Z,1.90
2024-04-07T08:11:13.555Z,0.80
2024-04-07T08:13:41.956Z,0.80
2024-04-07T08:16:11.802Z,1.10
2024-04-07T08:18:41.857Z,1.20
2024-04-07T08:21:11.868Z,1.80
2024-04-07T08:23:40.369Z,1.10
2024-04-07T08:26:08.726Z,4.00
2024-04-07T08:28:37.054Z,0.80
2024-04-07T08:31:05.346Z,3.60
2024-04-07T08:33:33.686Z,1.80
2024-04-07T08:36:01.981Z,1.40
2024-04-07T08:38:32.082Z,1.80
2024-04-07T08:41:02.466Z,1.00
2024-04-07T08:43:31.208Z,1.20
2024-04-07T08:46:00.130Z,0.70
2024-04-07T08:48:30.151Z,1.10
2024-04-07T08:51:01.989Z,1.00
2024-04-07T08:53:30.278Z,0.90
2024-04-07T08:55:59.819Z,1.10
2024-04-07T08:58:28.758Z,1.30
2024-04-07T09:01:00.332Z,1.00
2024-04-07T09:03:30.731Z,0.60
2024-04-07T09:05:59.405Z,0.90
2024-04-07T09:08:28.167Z,1.20
2024-04-07T09:10:56.411Z,1.10
2024-04-07T09:13:24.665Z,2.10
2024-04-07T09:15:53.659Z,1.30
2024-04-07T09:18:25.205Z,1.20
2024-04-07T09:20:53.382Z,2.70
2024-04-07T09:23:25.943Z,1.20
2024-04-07T09:25:54.428Z,0.60
2024-04-07T09:28:22.732Z,0.80
2024-04-07T09:30:51.075Z,1.20
2024-04-07T09:33:21.579Z,0.80
2024-04-07T09:35:49.815Z,1.40
2024-04-07T09:38:18.035Z,1.50
2024-04-07T09:40:48.006Z,1.20
2024-04-07T09:43:17.242Z,2.40
2024-04-07T09:45:49.832Z,0.90
2024-04-07T09:48:21.628Z,0.80
2024-04-07T09:50:58.889Z,1.30
2024-04-07T09:53:42.171Z,0.50
2024-04-07T09:56:12.975Z,1.40
2024-04-07T09:58:41.824Z,0.70
2024-04-07T10:01:11.135Z,0.70
2024-04-07T10:03:40.402Z,0.70
2024-04-07T10:06:09.375Z,1.60
2024-04-07T10:08:39.134Z,0.60
2024-04-07T10:11:16.380Z,1.50
2024-04-07T10:13:46.404Z,1.10
2024-04-07T10:16:15.145Z,1.80
2024-04-07T10:18:45.004Z,0.90
2024-04-07T10:21:13.813Z,0.90
2024-04-07T10:23:46.665Z,1.20
2024-04-07T10:26:18.693Z,2.00
2024-04-07T10:28:57.451Z,0.90
2024-04-07T10:31:30.584Z,1.00
2024-04-07T10:33:58.851Z,1.10
2024-04-07T10:36:30.718Z,1.30
2024-04-07T10:38:59.363Z,1.10
2024-04-07T10:41:31.897Z,0.80
2024-04-07T10:44:01.970Z,0.80
2024-04-07T10:46:32.514Z,0.90
2024-04-07T10:49:01.992Z,0.90
2024-04-07T10:51:30.390Z,1.20
2024-04-07T10:54:06.507Z,0.50
2024-04-07T10:56:35.525Z,0.80
2024-04-07T10:59:04.160Z,0.50
2024-04-07T11:01:32.802Z,1.50
2024-04-07T11:04:01.160Z,1.20
2024-04-07T11:06:29.641Z,0.40
2024-04-07T11:08:59.209Z,0.70
2024-04-07T11:11:27.594Z,0.50
2024-04-07T11:13:59.597Z,0.80
2024-04-07T11:16:28.434Z,0.90
2024-04-07T11:18:57.656Z,1.00
2024-04-07T11:21:27.867Z,0.80
2024-04-07T11:23:56.914Z,0.80
2024-04-07T11:26:29.516Z,0.90
2024-04-07T11:29:00.078Z,0.70
2024-04-07T11:31:30.899Z,0.80
2024-04-07T11:34:00.280Z,1.00
2024-04-07T11:36:28.855Z,0.40
2024-04-07T11:38:57.633Z,1.20
2024-04-07T11:41:25.868Z,0.90
2024-04-07T11:43:54.864Z,0.60
2024-04-07T11:46:24.295Z,0.80
2024-04-07T11:48:52.465Z,0.50
2024-04-07T11:51:20.647Z,0.70
2024-04-07T11:53:49.934Z,0.90
2024-04-07T11:56:19.484Z,1.10
2024-04-07T11:58:48.161Z,0.70
2024-04-07T12:01:16.436Z,0.90
2024-04-07T12:03:45.177Z,0.80
2024-04-07T12:06:15.723Z,0.60
2024-04-07T12:08:44.605Z,0.90
2024-04-07T12:11:15.792Z,0.60
2024-04-07T12:13:44.635Z,0.80
2024-04-07T12:16:13.375Z,0.80
2024-04-07T12:18:41.611Z,0.80
2024-04-07T12:21:11.432Z,1.00
2024-04-07T12:23:39.716Z,0.70
2024-04-07T12:26:09.820Z,0.80
2024-04-07T12:28:39.531Z,1.30
2024-04-07T12:31:10.334Z,0.50
2024-04-07T12:33:39.154Z,0.40
2024-04-07T12:36:08.617Z,1.00
2024-04-07T12:38:36.884Z,0.90
2024-04-07T12:41:06.662Z,1.60
2024-04-07T12:43:35.452Z,0.80
2024-04-07T12:46:04.890Z,0.50
2024-04-07T12:48:36.448Z,0.60
2024-04-07T12:51:06.031Z,0.60
2024-04-07T12:53:34.179Z,1.10
2024-04-07T12:56:02.489Z,1.20
2024-04-07T12:58:31.218Z,1.00
2024-04-07T13:01:06.997Z,0.50
2024-04-07T13:03:36.472Z,0.60
2024-04-07T13:06:06.392Z,1.10
2024-04-07T13:08:34.608Z,0.80
2024-04-07T13:11:04.166Z,0.60
2024-04-07T13:13:34.078Z,0.90
2024-04-07T13:16:02.824Z,0.90
2024-04-07T13:18:33.087Z,0.80
2024-04-07T13:21:01.294Z,0.70
2024-04-07T13:23:29.682Z,0.70
2024-04-07T13:25:58.430Z,1.60
2024-04-07T13:28:26.688Z,0.70
2024-04-07T13:30:56.212Z,0.50
2024-04-07T13:33:26.029Z,1.00
2024-04-07T13:35:54.474Z,0.60
2024-04-07T13:38:22.706Z,0.70
2024-04-07T13:40:58.309Z,1.50
2024-04-07T13:43:27.546Z,1.50
2024-04-07T13:45:55.769Z,0.80
2024-04-07T13:48:24.801Z,1.00
2024-04-07T13:50:59.390Z,0.90
2024-04-07T13:53:28.905Z,0.80
2024-04-07T13:55:57.568Z,0.80
2024-04-07T13:58:25.822Z,1.10
2024-04-07T14:00:55.671Z,0.90
2024-04-07T14:03:24.177Z,0.50
2024-04-07T14:05:53.272Z,0.60
2024-04-07T14:08:21.598Z,0.60
2024-04-07T14:10:50.355Z,1.00
2024-04-07T14:13:18.735Z,0.50
2024-04-07T14:15:47.192Z,0.70
2024-04-07T14:18:16.472Z,0.80
2024-04-07T14:20:45.160Z,0.90
2024-04-07T14:23:13.980Z,1.10
2024-04-07T14:25:43.570Z,0.60
2024-04-07T14:28:12.251Z,0.70
2024-04-07T14:30:40.480Z,0.50
2024-04-07T14:33:08.734Z,0.90
2024-04-07T14:35:37.088Z,1.20
2024-04-07T14:38:06.053Z,1.00
2024-04-07T14:40:34.806Z,0.60
2024-04-07T14:43:03.054Z,0.70
2024-04-07T14:45:31.391Z,1.40
2024-04-07T14:48:00.480Z,2.70
2024-04-07T14:50:29.025Z,0.60
2024-04-07T14:52:57.334Z,0.50
2024-04-07T14:55:26.135Z,0.90
2024-04-07T14:57:57.799Z,1.00
2024-04-07T15:00:26.026Z,0.90
2024-04-07T15:02:54.860Z,1.30
2024-04-07T15:05:23.220Z,2.30
2024-04-07T15:07:51.850Z,1.70
2024-04-07T15:10:21.074Z,0.50
2024-04-07T15:12:49.399Z,0.70
2024-04-07T15:15:18.122Z,0.70
2024-04-07T15:17:47.180Z,1.00
2024-04-07T15:20:15.500Z,1.80
2024-04-07T15:22:46.677Z,0.50
2024-04-07T15:25:15.009Z,0.60
2024-04-07T15:27:43.640Z,0.50
2024-04-07T15:30:12.112Z,0.50
2024-04-07T15:32:41.123Z,1.20
2024-04-07T15:35:09.748Z,0.80
2024-04-07T15:37:39.136Z,1.20
2024-04-07T15:40:08.481Z,1.00
2024-04-07T15:42:38.153Z,0.90
2024-04-07T15:45:06.570Z,1.30
2024-04-07T15:47:35.655Z,0.90
2024-04-07T15:50:04.391Z,1.30
2024-04-07T15:52:32.674Z,1.00
2024-04-07T15:55:01.014Z,1.30
2024-04-07T15:57:29.546Z,0.70
2024-04-07T15:59:58.424Z,0.70
2024-04-07T16:02:26.821Z,1.00
2024-04-07T16:04:55.194Z,0.90
2024-04-07T16:07:23.578Z,1.10
2024-04-07T16:09:52.566Z,1.10
2024-04-07T16:12:20.814Z,0.80
2024-04-07T16:14:49.102Z,0.80
2024-04-07T16:17:18.071Z,0.70
2024-04-07T16:19:47.440Z,0.50
2024-04-07T16:22:16.264Z,0.80
2024-04-07T16:24:44.554Z,0.80
2024-04-07T16:27:13.128Z,1.50
2024-04-07T16:29:42.165Z,1.20
2024-04-07T16:32:11.309Z,0.80
2024-04-07T16:34:41.117Z,0.80
2024-04-07T16:37:09.521Z,1.00
2024-04-07T16:39:38.939Z,0.80
2024-04-07T16:42:07.958Z,0.80
2024-04-07T16:44:36.688Z,1.10
2024-04-07T16:47:05.697Z,1.30
2024-04-07T16:49:33.930Z,1.00
2024-04-07T16:52:02.200Z,1.50
2024-04-07T16:54:31.328Z,1.00
2024-04-07T16:57:03.695Z,1.20
2024-04-07T16:59:32.899Z,1.20
2024-04-07T17:02:01.385Z,1.40
2024-04-07T17:04:29.813Z,2.70
2024-04-07T17:06:58.174Z,1.00
2024-04-07T17:09:26.553Z,1.60
2024-04-07T17:11:54.837Z,1.10
2024-04-07T17:14:24.694Z,1.00
2024-04-07T17:16:53.024Z,1.90
2024-04-07T17:19:21.332Z,0.90
2024-04-07T17:21:49.750Z,1.20
2024-04-07T17:24:17.952Z,1.40
2024-04-07T17:26:46.687Z,0.90
2024-04-07T17:29:15.723Z,1.30
2024-04-07T17:31:44.542Z,1.90
2024-04-07T17:34:14.371Z,1.80
2024-04-07T17:36:49.365Z,1.20
2024-04-07T17:39:31.940Z,2.20
2024-04-07T17:42:00.894Z,3.20
2024-04-07T17:44:29.312Z,3.30
2024-04-07T17:46:58.996Z,3.70
2024-04-07T17:49:30.551Z,2.40
2024-04-07T17:51:59.409Z,3.40
2024-04-07T17:54:28.555Z,2.50
2024-04-07T17:56:58.150Z,1.60
2024-04-07T17:59:28.636Z,2.30
2024-04-07T18:01:57.212Z,1.90
2024-04-07T18:04:25.845Z,2.10
2024-04-07T18:06:54.317Z,3.40
2024-04-07T18:09:22.593Z,3.10
2024-04-07T18:11:51.672Z,2.30
2024-04-07T18:14:24.377Z,3.70
2024-04-07T18:16:54.025Z,2.40
2024-04-07T18:19:23.868Z,2.90
2024-04-07T18:21:52.177Z,2.20
2024-04-07T18:24:20.494Z,2.00
2024-04-07T18:26:50.595Z,2.10
2024-04-07T18:29:18.993Z,3.60
2024-04-07T18:31:47.318Z,2.30
2024-04-07T18:34:16.691Z,3.20
2024-04-07T18:36:45.596Z,2.00
2024-04-07T18:39:16.377Z,2.10
2024-04-07T18:41:48.477Z,2.50
2024-04-07T18:44:21.066Z,2.60
2024-04-07T18:46:52.916Z,2.40
2024-04-07T18:49:22.946Z,2.30
2024-04-07T18:51:54.155Z,1.80
2024-04-07T18:54:40.852Z,1.70
2024-04-07T18:57:11.682Z,3.00
2024-04-07T18:59:42.202Z,1.60
2024-04-07T19:02:22.267Z,1.90
2024-04-07T19:04:51.024Z,1.90
2024-04-07T19:07:24.411Z,1.80
2024-04-07T19:09:52.941Z,1.10
2024-04-07T19:12:22.915Z,3.20
2024-04-07T19:14:53.886Z,4.10
2024-04-07T19:17:22.673Z,2.30
2024-04-07T19:20:00.126Z,2.60
2024-04-07T19:22:32.206Z,3.30
2024-04-07T19:25:08.794Z,2.40
2024-04-07T19:27:40.829Z,2.70
2024-04-07T19:30:28.779Z,2.30
2024-04-07T19:33:01.390Z,1.90
2024-04-07T19:35:55.111Z,1.60
2024-04-07T19:38:27.343Z,1.80
2024-04-07T19:41:04.312Z,1.40
2024-04-07T19:43:45.703Z,1.50
2024-04-07T19:46:41.434Z,2.40
2024-04-07T19:49:30.411Z,3.30
2024-04-07T19:53:11.762Z,2.50
2024-04-07T19:55:55.595Z,2.20
2024-04-07T19:58:45.016Z,1.90
2024-04-07T20:01:36.088Z,2.00
2024-04-07T20:04:46.558Z,1.80
2024-04-07T20:08:06.399Z,1.30
2024-04-07T20:11:24.730Z,2.10
